Time,TemperatureF,DewpointF,PressureIn,WindDirection,WindDirectionDegrees,WindSpeedMPH,WindSpeedGustMPH,Humidity,HourlyPrecipIn,Conditions,Clouds,dailyrainin,SolarRadiationWatts/m^2,SoftwareType,DateUTC
2013-04-05 00:00:00,52.0,47.0,30.13,NE,49,2.0,4.0,84,-99.99,,,-99.99,0.000000,,2013-04-05 07:00:00,
2013-04-05 00:12:00,52.0,47.0,30.13,NE,49,2.0,4.0,84,-99.99,,,-99.99,0.000000,,2013-04-05 07:12:00,
2013-04-05 00:22:00,52.0,47.0,30.13,NE,49,2.0,4.0,84,-99.99,,,-99.99,0.000000,,2013-04-05 07:22:00,
2013-04-05 00:32:00,52.0,47.0,30.13,NE,49,2.0,4.0,84,-99.99,,,-99.99,0.000000,,2013-04-05 07:32:00,
2013-04-05 00:42:00,52.0,47.0,30.13,NE,49,2.0,4.0,84,-99.99,,,-99.99,0.000000,,2013-04-05 07:42:00,
2013-04-05 00:52:00,52.0,47.0,30.13,NE,49,2.0,4.0,84,-99.99,,,-99.99,0.000000,,2013-04-05 07:52:00,
2013-04-05 02:10:00,52.0,48.0,30.14,NNE,32,1.0,4.0,88,-99.99,,,-99.99,0.000000,,2013-04-05 09:10:00,
2013-04-05 02:22:00,52.0,48.0,30.14,NNE,32,1.0,4.0,88,-99.99,,,-99.99,0.000000,,2013-04-05 09:22:00,
2013-04-05 02:33:00,52.0,48.0,30.14,NNE,32,1.0,4.0,88,-99.99,,,-99.99,0.000000,,2013-04-05 09:33:00,
2013-04-05 02:43:00,52.0,48.0,30.14,NNE,32,1.0,4.0,88,-99.99,,,-99.99,0.000000,,2013-04-05 09:43:00,
2013-04-05 02:53:00,52.0,48.0,30.14,NNE,32,1.0,4.0,88,-99.99,,,-99.99,0.000000,,2013-04-05 09:53:00,
2013-04-05 03:02:00,52.0,48.0,30.14,NNE,32,1.0,4.0,88,-99.99,,,-99.99,0.000000,,2013-04-05 10:02:00,
2013-04-05 06:50:00,49.0,49.0,30.13,WNW,295,1.0,4.0,99,-99.99,,,-99.99,0.000000,,2013-04-05 13:50:00,
2013-04-05 07:02:00,49.0,49.0,30.13,WNW,295,1.0,4.0,99,-99.99,,,-99.99,0.000000,,2013-04-05 14:02:00,
2013-04-05 07:12:00,49.0,49.0,30.13,WNW,295,1.0,4.0,99,-99.99,,,-99.99,0.000000,,2013-04-05 14:12:00,
2013-04-05 07:22:00,49.0,49.0,30.13,WNW,295,1.0,4.0,99,-99.99,,,-99.99,0.000000,,2013-04-05 14:22:00,
2013-04-05 07:42:00,49.0,49.0,30.13,WNW,295,1.0,4.0,99,-99.99,,,-99.99,0.000000,,2013-04-05 14:42:00,
2013-04-05 08:10:00,48.0,48.0,30.15,WSW,256,1.0,4.0,100,-99.99,,,-99.99,0.000000,,2013-04-05 15:10:00,
2013-04-05 08:23:00,48.0,48.0,30.15,WSW,256,1.0,4.0,100,-99.99,,,-99.99,0.000000,,2013-04-05 15:23:00,
2013-04-05 08:33:00,48.0,48.0,30.15,WSW,256,1.0,4.0,100,-99.99,,,-99.99,0.000000,,2013-04-05 15:33:00,
2013-04-05 08:43:00,48.0,48.0,30.15,WSW,256,1.0,4.0,100,-99.99,,,-99.99,0.000000,,2013-04-05 15:43:00,
2013-04-05 08:53:00,48.0,48.0,30.15,WSW,256,1.0,4.0,100,-99.99,,,-99.99,0.000000,,2013-04-05 15:53:00,
2013-04-05 09:02:00,48.0,48.0,30.15,WSW,256,1.0,4.0,100,-99.99,,,-99.99,0.000000,,2013-04-05 16:02:00,
2013-04-05 09:40:00,49.0,47.0,30.17,NNE,20,2.0,6.0,91,-99.99,,,-99.99,80.000000,,2013-04-05 16:40:00,
2013-04-05 09:53:00,49.0,47.0,30.17,NNE,20,2.0,6.0,91,-99.99,,,-99.99,80.000000,,2013-04-05 16:53:00,
2013-04-05 10:03:00,49.0,47.0,30.17,NNE,20,2.0,6.0,91,-99.99,,,-99.99,80.000000,,2013-04-05 17:03:00,
2013-04-05 10:12:00,49.0,47.0,30.17,NNE,20,2.0,6.0,91,-99.99,,,-99.99,80.000000,,2013-04-05 17:12:00,
2013-04-05 10:22:00,49.0,47.0,30.17,NNE,20,2.0,6.0,91,-99.99,,,-99.99,80.000000,,2013-04-05 17:22:00,
2013-04-05 10:32:00,49.0,47.0,30.17,NNE,20,2.0,6.0,91,-99.99,,,-99.99,80.000000,,2013-04-05 17:32:00,
2013-04-05 11:22:00,54.0,46.0,30.17,WSW,248,4.0,10.0,74,-99.99,,,-99.99,450.000000,,2013-04-05 18:22:00,
2013-04-05 11:32:00,54.0,46.0,30.17,WSW,248,4.0,10.0,74,-99.99,,,-99.99,450.000000,,2013-04-05 18:32:00,
2013-04-05 11:42:00,54.0,46.0,30.17,WSW,248,4.0,10.0,74,-99.99,,,-99.99,450.000000,,2013-04-05 18:42:00,
2013-04-05 11:52:00,54.0,46.0,30.17,WSW,248,4.0,10.0,74,-99.99,,,-99.99,450.000000,,2013-04-05 18:52:00,
2013-04-05 12:02:00,54.0,46.0,30.17,WSW,248,4.0,10.0,74,-99.99,,,-99.99,450.000000,,2013-04-05 19:02:00,
2013-04-05 12:10:00,56.0,45.0,30.17,WSW,244,7.0,12.0,68,-99.99,,,-99.99,640.000000,,2013-04-05 19:10:00,
2013-04-05 12:23:00,56.0,45.0,30.17,WSW,244,7.0,12.0,68,-99.99,,,-99.99,640.000000,,2013-04-05 19:23:00,
2013-04-05 12:33:00,56.0,45.0,30.17,WSW,244,7.0,12.0,68,-99.99,,,-99.99,640.000000,,2013-04-05 19:33:00,
2013-04-05 12:42:00,56.0,45.0,30.17,WSW,244,7.0,12.0,68,-99.99,,,-99.99,640.000000,,2013-04-05 19:42:00,
2013-04-05 12:52:00,56.0,45.0,30.17,WSW,244,7.0,12.0,68,-99.99,,,-99.99,640.000000,,2013-04-05 19:52:00,
2013-04-05 13:02:00,56.0,45.0,30.17,WSW,244,7.0,12.0,68,-99.99,,,-99.99,640.000000,,2013-04-05 20:02:00,
2013-04-05 17:00:00,62.0,46.0,30.13,WSW,257,5.0,11.0,56,-99.99,,,-99.99,650.000000,,2013-04-06 00:00:00,
2013-04-05 17:12:00,62.0,46.0,30.13,WSW,257,5.0,11.0,56,-99.99,,,-99.99,650.000000,,2013-04-06 00:12:00,
2013-04-05 17:22:00,62.0,46.0,30.13,WSW,257,5.0,11.0,56,-99.99,,,-99.99,650.000000,,2013-04-06 00:22:00,
2013-04-05 17:32:00,62.0,46.0,30.13,WSW,257,5.0,11.0,56,-99.99,,,-99.99,650.000000,,2013-04-06 00:32:00,
2013-04-05 17:42:00,62.0,46.0,30.13,WSW,257,5.0,11.0,56,-99.99,,,-99.99,650.000000,,2013-04-06 00:42:00,
2013-04-05 17:51:00,62.0,46.0,30.13,WSW,257,5.0,11.0,56,-99.99,,,-99.99,650.000000,,2013-04-06 00:51:00,
2013-04-05 19:40:00,58.0,47.0,30.14,West,268,3.0,8.0,68,-99.99,,,-99.99,150.000000,,2013-04-06 02:40:00,
2013-04-05 19:52:00,58.0,47.0,30.14,West,268,3.0,8.0,68,-99.99,,,-99.99,150.000000,,2013-04-06 02:52:00,
2013-04-05 20:02:00,58.0,47.0,30.14,West,268,3.0,8.0,68,-99.99,,,-99.99,150.000000,,2013-04-06 03:02:00,
2013-04-05 20:12:00,58.0,47.0,30.14,West,268,3.0,8.0,68,-99.99,,,-99.99,150.000000,,2013-04-06 03:12:00,
2013-04-05 20:22:00,58.0,47.0,30.14,West,268,3.0,8.0,68,-99.99,,,-99.99,150.000000,,2013-04-06 03:22:00,
2013-04-05 20:32:00,58.0,47.0,30.14,West,268,3.0,8.0,68,-99.99,,,-99.99,150.000000,,2013-04-06 03:32:00,
2013-04-05 20:40:00,52.0,47.0,30.14,WSW,237,2.0,5.0,83,-99.99,,,-99.99,0.000000,,2013-04-06 03:40:00,
2013-04-05 20:54:00,52.0,47.0,30.14,WSW,237,2.0,5.0,83,-99.99,,,-99.99,0.000000,,2013-04-06 03:54:00,
2013-04-05 21:03:00,52.0,47.0,30.14,WSW,237,2.0,5.0,83,-99.99,,,-99.99,0.000000,,2013-04-06 04:03:00,
2013-04-05 21:13:00,52.0,47.0,30.14,WSW,237,2.0,5.0,83,-99.99,,,-99.99,0.000000,,2013-04-06 04:13:00,
2013-04-05 21:22:00,52.0,47.0,30.14,WSW,237,2.0,5.0,83,-99.99,,,-99.99,0.000000,,2013-04-06 04:22:00,
2013-04-05 21:32:00,52.0,47.0,30.14,WSW,237,2.0,5.0,83,-99.99,,,-99.99,0.000000,,2013-04-06 04:32:00,
2013-04-05 21:40:00,49.0,46.0,30.17,WSW,253,1.0,4.0,88,-99.99,,,-99.99,0.000000,,2013-04-06 04:40:00,
2013-04-05 21:53:00,49.0,46.0,30.17,WSW,253,1.0,4.0,88,-99.99,,,-99.99,0.000000,,2013-04-06 04:53:00,
2013-04-05 22:02:00,49.0,46.0,30.17,WSW,253,1.0,4.0,88,-99.99,,,-99.99,0.000000,,2013-04-06 05:02:00,
2013-04-05 22:12:00,49.0,46.0,30.17,WSW,253,1.0,4.0,88,-99.99,,,-99.99,0.000000,,2013-04-06 05:12:00,
2013-04-05 22:22:00,49.0,46.0,30.17,WSW,253,1.0,4.0,88,-99.99,,,-99.99,0.000000,,2013-04-06 05:22:00,
2013-04-05 22:32:00,49.0,46.0,30.17,WSW,253,1.0,4.0,88,-99.99,,,-99.99,0.000000,,2013-04-06 05:32:00,